Time;durP1;ratioP1;P1;durP2;ratioP2;P2;SDS_P1;SDS_P2;PMS_P1;PMS_P2;Temp;Humidity;BMP_temperature;BMP_pressure;BME280_temperature;BME280_humidity;BME280_pressure;Samples;Min_cycle;Max_cycle;Signal;HPM_P1;HPM_P2
2023/12/18 00:00:59;;;;;;;14.77;8.17;;;4.60;99.90;;;;;;941112;148;27330;-84
2023/12/18 00:03:25;;;;;;;16.20;9.53;;;4.60;99.90;;;;;;940812;148;27373;-86
2023/12/18 00:05:52;;;;;;;15.67;9.10;;;4.60;99.90;;;;;;939954;149;27306;-85
2023/12/18 00:08:19;;;;;;;32.27;10.83;;;4.60;99.90;;;;;;943401;148;27405;-86
2023/12/18 00:10:45;;;;;;;23.63;10.13;;;4.60;99.90;;;;;;940049;148;27666;-83
2023/12/18 00:13:12;;;;;;;21.60;9.63;;;4.60;99.90;;;;;;921341;155;27466;-86
2023/12/18 00:15:38;;;;;;;24.90;10.80;;;4.60;99.90;;;;;;949056;150;27429;-84
2023/12/18 00:18:05;;;;;;;27.33;10.00;;;4.60;99.90;;;;;;934801;150;27270;-84
2023/12/18 00:20:32;;;;;;;27.07;9.37;;;4.60;99.90;;;;;;947674;150;27317;-85
2023/12/18 00:22:58;;;;;;;24.23;10.17;;;4.60;99.90;;;;;;935351;151;27873;-80
2023/12/18 00:25:25;;;;;;;25.10;9.03;;;4.60;99.90;;;;;;937313;150;27375;-81
2023/12/18 00:27:51;;;;;;;27.10;8.53;;;4.60;99.90;;;;;;931386;151;27299;-80
2023/12/18 00:30:18;;;;;;;17.70;10.20;;;4.50;99.90;;;;;;945349;148;27673;-81
2023/12/18 00:32:44;;;;;;;40.57;10.23;;;4.50;99.90;;;;;;942763;148;27291;-84
2023/12/18 00:35:11;;;;;;;26.77;9.67;;;4.50;99.90;;;;;;944580;148;27383;-83
2023/12/18 00:37:38;;;;;;;27.67;9.80;;;4.50;99.90;;;;;;944830;149;27349;-84
2023/12/18 00:40:04;;;;;;;18.67;9.80;;;4.50;99.90;;;;;;953630;147;27302;-85
2023/12/18 00:42:31;;;;;;;17.37;9.53;;;4.40;99.90;;;;;;945559;149;27266;-85
2023/12/18 00:44:57;;;;;;;21.17;9.43;;;4.40;99.90;;;;;;961075;146;27372;-84
2023/12/18 00:47:24;;;;;;;17.73;9.17;;;4.40;99.90;;;;;;946261;148;27447;-85
2023/12/18 00:49:51;;;;;;;28.87;9.67;;;4.40;99.90;;;;;;953564;147;27349;-85
2023/12/18 00:52:17;;;;;;;16.70;9.30;;;4.40;99.90;;;;;;953601;147;27379;-85
2023/12/18 00:54:44;;;;;;;28.53;9.23;;;4.30;99.90;;;;;;927801;150;27344;-85
2023/12/18 00:57:10;;;;;;;17.23;8.03;;;4.30;99.90;;;;;;943071;149;27385;-85
2023/12/18 00:59:37;;;;;;;18.10;8.23;;;4.40;99.90;;;;;;943505;150;27336;-85
2023/12/18 01:02:03;;;;;;;22.30;8.80;;;4.40;99.90;;;;;;935098;149;27493;-85
2023/12/18 01:04:30;;;;;;;21.23;9.57;;;4.30;99.90;;;;;;936018;149;27382;-84
2023/12/18 01:06:57;;;;;;;21.37;8.43;;;4.30;99.90;;;;;;935138;150;27314;-83
2023/12/18 01:09:23;;;;;;;17.73;8.80;;;4.30;99.90;;;;;;935602;150;27377;-85
2023/12/18 01:11:50;;;;;;;13.80;8.47;;;4.30;99.90;;;;;;934974;150;27334;-83
2023/12/18 01:14:16;;;;;;;21.30;8.80;;;4.30;99.90;;;;;;953405;148;27405;-85
2023/12/18 01:16:43;;;;;;;15.10;8.27;;;4.30;99.90;;;;;;952757;148;27363;-82
2023/12/18 01:19:10;;;;;;;16.77;8.43;;;4.30;99.90;;;;;;952461;148;27346;-85
2023/12/18 01:21:36;;;;;;;10.77;7.40;;;4.30;99.90;;;;;;950700;148;27425;-85
2023/12/18 01:24:03;;;;;;;10.50;7.90;;;4.30;99.90;;;;;;949725;148;27434;-85
2023/12/18 01:26:29;;;;;;;14.00;8.70;;;4.20;99.90;;;;;;957204;146;27358;-85
2023/12/18 01:28:56;;;;;;;30.33;8.50;;;4.20;99.90;;;;;;951615;147;27421;-82
2023/12/18 01:31:23;;;;;;;19.30;8.80;;;4.20;99.90;;;;;;960547;146;27451;-85
2023/12/18 01:33:49;;;;;;;23.30;8.20;;;4.20;99.90;;;;;;960970;146;27279;-80
2023/12/18 01:36:16;;;;;;;17.03;8.47;;;4.20;99.90;;;;;;946644;148;27273;-80
2023/12/18 01:38:42;;;;;;;16.50;9.13;;;4.20;99.90;;;;;;955541;147;27304;-80
2023/12/18 01:41:09;;;;;;;19.13;8.17;;;4.20;99.90;;;;;;955584;146;27351;-80
2023/12/18 01:43:36;;;;;;;21.60;9.27;;;4.20;99.90;;;;;;960653;146;27746;-80
2023/12/18 01:46:03;;;;;;;17.43;8.60;;;4.20;99.90;;;;;;939452;149;27418;-80
2023/12/18 01:48:29;;;;;;;16.80;8.73;;;4.20;99.90;;;;;;947051;148;27881;-80
2023/12/18 01:50:55;;;;;;;21.87;9.63;;;4.20;99.90;;;;;;921487;154;27395;-81
2023/12/18 01:53:22;;;;;;;22.93;9.93;;;4.20;99.90;;;;;;922483;150;27476;-80
2023/12/18 01:55:48;;;;;;;15.00;8.47;;;4.20;99.90;;;;;;945340;148;27901;-80
2023/12/18 01:58:15;;;;;;;21.33;9.17;;;4.20;99.90;;;;;;942284;148;27304;-80
2023/12/18 02:00:42;;;;;;;25.87;9.30;;;4.20;99.90;;;;;;948982;148;27493;-81
2023/12/18 02:03:08;;;;;;;13.30;8.80;;;4.20;99.90;;;;;;947468;148;27358;-79
2023/12/18 02:05:35;;;;;;;29.10;10.17;;;4.20;99.90;;;;;;959271;146;27330;-80
2023/12/18 02:08:01;;;;;;;23.27;9.97;;;4.20;99.90;;;;;;944162;148;27360;-80
2023/12/18 02:10:28;;;;;;;32.93;10.70;;;4.20;99.90;;;;;;955464;146;27401;-80
2023/12/18 02:12:54;;;;;;;17.57;9.03;;;4.30;99.90;;;;;;956155;146;27315;-80
2023/12/18 02:15:21;;;;;;;16.93;8.03;;;4.30;99.90;;;;;;955969;146;27343;-80
2023/12/18 02:17:48;;;;;;;19.73;9.87;;;4.30;99.90;;;;;;956462;146;27311;-81
2023/12/18 02:20:14;;;;;;;14.07;8.60;;;4.30;99.90;;;;;;930325;150;27305;-80
2023/12/18 02:22:45;;;;;;;12.27;7.83;;;4.30;99.90;;;;;;949839;146;27304;-80
2023/12/18 02:25:10;;;;;;;19.83;9.20;;;4.30;99.90;;;;;;944713;148;27425;-80
2023/12/18 02:27:37;;;;;;;24.10;10.83;;;4.30;99.90;;;;;;949379;148;27378;-80
2023/12/18 02:30:03;;;;;;;16.17;8.40;;;4.30;99.90;;;;;;947193;148;27301;-80
2023/12/18 02:32:30;;;;;;;20.40;8.97;;;4.40;99.90;;;;;;949713;148;27370;-80
2023/12/18 02:34:57;;;;;;;12.63;9.47;;;4.30;99.90;;;;;;946376;148;27479;-80
2023/12/18 02:37:24;;;;;;;16.77;9.33;;;4.40;99.90;;;;;;947572;148;27348;-80
2023/12/18 02:39:50;;;;;;;17.00;9.37;;;4.40;99.90;;;;;;959456;146;27360;-81
2023/12/18 02:42:16;;;;;;;13.07;8.80;;;4.40;99.90;;;;;;962479;146;27292;-81
2023/12/18 02:44:43;;;;;;;21.47;9.87;;;4.40;99.90;;;;;;960317;145;27458;-84
2023/12/18 02:47:09;;;;;;;15.47;9.33;;;4.50;99.90;;;;;;946817;148;27350;-86
2023/12/18 02:49:36;;;;;;;20.67;9.77;;;4.50;99.90;;;;;;946156;148;27453;-85
2023/12/18 02:52:03;;;;;;;13.37;8.53;;;4.50;99.90;;;;;;947512;148;27306;-85
2023/12/18 02:54:29;;;;;;;20.30;8.80;;;4.50;99.90;;;;;;954433;147;27259;-83
2023/12/18 02:56:56;;;;;;;9.00;7.97;;;4.50;99.90;;;;;;962214;146;27437;-84
2023/12/18 02:59:22;;;;;;;14.80;8.63;;;4.60;99.90;;;;;;960067;146;27409;-83
2023/12/18 03:01:49;;;;;;;17.30;9.03;;;4.60;99.90;;;;;;933669;148;27447;-83
2023/12/18 03:04:19;;;;;;;20.07;8.87;;;4.60;99.90;;;;;;938803;149;27329;-83
2023/12/18 03:06:47;;;;;;;19.43;8.50;;;4.60;99.90;;;;;;945969;148;27384;-83
2023/12/18 03:09:14;;;;;;;16.30;8.67;;;4.60;99.90;;;;;;948224;148;27301;-84
2023/12/18 03:11:40;;;;;;;14.97;8.87;;;4.60;99.90;;;;;;947648;148;27385;-84
2023/12/18 03:14:07;;;;;;;12.03;9.80;;;4.60;99.90;;;;;;963420;145;27266;-83
2023/12/18 03:16:34;;;;;;;13.93;9.40;;;4.70;99.90;;;;;;947366;149;27737;-84
2023/12/18 03:19:00;;;;;;;11.23;8.57;;;4.60;99.90;;;;;;957350;146;27411;-84
2023/12/18 03:21:27;;;;;;;13.43;8.13;;;4.60;99.90;;;;;;948708;147;27414;-84
2023/12/18 03:23:53;;;;;;;18.90;8.80;;;4.60;99.90;;;;;;951070;148;27309;-84
2023/12/18 03:26:20;;;;;;;18.83;9.10;;;4.60;99.90;;;;;;947674;148;27354;-84
2023/12/18 03:28:47;;;;;;;19.77;8.93;;;4.60;99.90;;;;;;947818;148;27405;-83
2023/12/18 03:31:14;;;;;;;16.10;8.60;;;4.60;99.90;;;;;;946700;148;27377;-84
2023/12/18 03:33:40;;;;;;;13.43;9.13;;;4.60;99.90;;;;;;946602;148;27369;-84
2023/12/18 03:36:06;;;;;;;17.53;8.97;;;4.60;99.90;;;;;;949242;148;27447;-84
2023/12/18 03:38:33;;;;;;;13.73;9.53;;;4.50;99.90;;;;;;949508;148;27445;-84
2023/12/18 03:40:59;;;;;;;10.73;8.27;;;4.60;99.90;;;;;;950534;148;27414;-84
2023/12/18 03:43:26;;;;;;;20.53;9.90;;;4.50;99.90;;;;;;948397;148;27408;-84
2023/12/18 03:45:53;;;;;;;14.93;9.20;;;4.50;99.90;;;;;;949599;148;27286;-84
2023/12/18 03:48:19;;;;;;;15.17;9.10;;;4.50;99.90;;;;;;947363;148;27364;-84
2023/12/18 03:50:46;;;;;;;12.70;9.37;;;4.50;99.90;;;;;;952823;148;28351;-84
2023/12/18 03:53:12;;;;;;;14.03;9.20;;;4.50;99.90;;;;;;948995;148;27289;-84
2023/12/18 03:55:39;;;;;;;23.87;9.53;;;4.50;99.90;;;;;;951538;148;27310;-85
2023/12/18 03:58:06;;;;;;;14.33;10.50;;;4.50;99.90;;;;;;951394;148;27330;-83
2023/12/18 04:00:33;;;;;;;21.90;10.50;;;4.50;99.90;;;;;;950811;148;28227;-86
2023/12/18 04:02:59;;;;;;;18.93;9.77;;;4.50;99.90;;;;;;952440;148;27243;-86
2023/12/18 04:05:25;;;;;;;13.50;8.73;;;4.50;99.90;;;;;;956055;145;27722;-81
2023/12/18 04:07:52;;;;;;;20.00;9.37;;;4.50;99.90;;;;;;948318;148;27318;-81
2023/12/18 04:10:18;;;;;;;21.80;10.43;;;4.50;99.90;;;;;;950221;148;27424;-82
2023/12/18 04:12:45;;;;;;;20.63;9.90;;;4.50;99.90;;;;;;948612;148;27399;-81
2023/12/18 04:15:12;;;;;;;18.27;9.30;;;4.50;99.90;;;;;;949688;148;27277;-81
2023/12/18 04:17:38;;;;;;;18.57;9.30;;;4.50;99.90;;;;;;949365;148;27304;-82
2023/12/18 04:20:05;;;;;;;24.57;10.57;;;4.50;99.90;;;;;;946820;148;27294;-81
2023/12/18 04:22:32;;;;;;;13.67;9.20;;;4.50;99.90;;;;;;948584;148;27900;-81
2023/12/18 04:24:58;;;;;;;14.37;8.87;;;4.40;99.90;;;;;;947271;148;27450;-82
2023/12/18 04:27:25;;;;;;;16.30;9.50;;;4.50;99.90;;;;;;926897;150;27295;-81
2023/12/18 04:29:51;;;;;;;18.87;9.20;;;4.50;99.90;;;;;;948334;148;27274;-82
2023/12/18 04:32:18;;;;;;;15.87;7.73;;;4.50;99.90;;;;;;949892;148;27368;-82
2023/12/18 04:34:44;;;;;;;21.70;9.87;;;4.50;99.90;;;;;;953395;148;27352;-81
2023/12/18 04:37:11;;;;;;;19.43;9.73;;;4.40;99.90;;;;;;952742;148;27240;-81
2023/12/18 04:39:38;;;;;;;17.70;8.83;;;4.50;99.90;;;;;;953367;148;27435;-81
2023/12/18 04:42:04;;;;;;;19.87;9.40;;;4.40;99.90;;;;;;952337;148;27427;-82
2023/12/18 04:44:31;;;;;;;17.53;9.27;;;4.40;99.90;;;;;;954279;148;27421;-81
2023/12/18 04:46:57;;;;;;;17.63;8.27;;;4.40;99.90;;;;;;951713;148;27285;-81
2023/12/18 04:49:24;;;;;;;21.10;9.60;;;4.40;99.90;;;;;;933546;149;27334;-81
2023/12/18 04:51:51;;;;;;;18.70;8.80;;;4.40;99.90;;;;;;933661;149;27383;-82
2023/12/18 04:54:17;;;;;;;19.77;8.83;;;4.40;99.90;;;;;;933324;149;27366;-82
2023/12/18 04:56:44;;;;;;;13.50;8.87;;;4.40;99.90;;;;;;933823;149;27379;-82
2023/12/18 04:59:11;;;;;;;22.80;8.90;;;4.40;99.90;;;;;;950191;146;27367;-81
2023/12/18 05:01:37;;;;;;;24.87;8.90;;;4.40;99.90;;;;;;926228;150;27277;-81
2023/12/18 05:04:04;;;;;;;19.00;9.07;;;4.40;99.90;;;;;;941938;148;27383;-82
2023/12/18 05:06:30;;;;;;;14.43;8.10;;;4.40;99.90;;;;;;945193;149;27774;-81
2023/12/18 05:08:57;;;;;;;14.83;9.03;;;4.40;99.90;;;;;;930109;150;27308;-81
2023/12/18 05:11:24;;;;;;;17.60;7.47;;;4.40;99.90;;;;;;953779;146;27271;-81
2023/12/18 05:13:50;;;;;;;22.17;8.73;;;4.40;99.90;;;;;;945467;149;27289;-82
2023/12/18 05:16:16;;;;;;;13.60;7.40;;;4.30;99.90;;;;;;944888;149;27347;-81
2023/12/18 05:18:43;;;;;;;12.27;8.33;;;4.30;99.90;;;;;;944022;149;27441;-81
2023/12/18 05:21:13;;;;;;;24.27;8.60;;;4.30;99.90;;;;;;935292;150;27271;-81
2023/12/18 05:23:39;;;;;;;17.93;7.80;;;4.30;99.90;;;;;;940823;149;27297;-82
2023/12/18 05:26:06;;;;;;;17.10;8.13;;;4.30;99.90;;;;;;939904;149;27496;-81
2023/12/18 05:28:32;;;;;;;14.37;7.97;;;4.30;99.90;;;;;;939103;149;27520;-81
2023/12/18 05:30:59;;;;;;;17.83;8.43;;;4.30;99.90;;;;;;937962;149;27793;-81
2023/12/18 05:33:25;;;;;;;22.43;9.10;;;4.20;99.90;;;;;;938234;149;27339;-81
2023/12/18 05:35:52;;;;;;;13.37;8.20;;;4.20;99.90;;;;;;953847;145;27296;-82
2023/12/18 05:38:19;;;;;;;14.67;8.77;;;4.20;99.90;;;;;;928097;149;27436;-81
2023/12/18 05:40:45;;;;;;;21.93;8.80;;;4.20;99.90;;;;;;943968;148;27374;-81
2023/12/18 05:43:12;;;;;;;18.40;8.10;;;4.20;99.90;;;;;;939864;149;27272;-82
2023/12/18 05:45:38;;;;;;;15.33;7.73;;;4.20;99.90;;;;;;941527;149;27338;-82
2023/12/18 05:48:05;;;;;;;24.80;8.80;;;4.20;99.90;;;;;;938406;150;27705;-82
2023/12/18 05:50:32;;;;;;;22.33;8.27;;;4.20;99.90;;;;;;955100;145;27436;-81
2023/12/18 05:52:58;;;;;;;20.60;8.60;;;4.20;99.90;;;;;;955462;146;27272;-82
2023/12/18 05:55:25;;;;;;;11.60;7.97;;;4.20;99.90;;;;;;938497;150;27459;-81
2023/12/18 05:57:51;;;;;;;9.40;7.70;;;4.20;99.90;;;;;;938306;150;27384;-81
2023/12/18 06:00:19;;;;;;;15.87;8.73;;;4.20;99.90;;;;;;944874;148;27347;-82
2023/12/18 06:02:45;;;;;;;20.50;9.50;;;4.20;99.90;;;;;;939177;149;27364;-81
2023/12/18 06:05:12;;;;;;;13.30;8.27;;;4.20;99.90;;;;;;939991;149;27533;-82
2023/12/18 06:07:38;;;;;;;15.73;8.47;;;4.20;99.90;;;;;;942054;148;27404;-81
2023/12/18 06:10:04;;;;;;;19.70;9.60;;;4.20;99.90;;;;;;941844;149;27331;-82
2023/12/18 06:12:32;;;;;;;12.13;8.27;;;4.20;99.90;;;;;;931020;151;27424;-81
2023/12/18 06:14:57;;;;;;;12.50;8.50;;;4.20;99.90;;;;;;944484;149;27300;-87
2023/12/18 06:17:24;;;;;;;12.97;8.00;;;4.20;99.90;;;;;;944485;149;27399;-86
2023/12/18 06:19:51;;;;;;;12.23;8.13;;;4.20;99.90;;;;;;937468;149;27459;-85
2023/12/18 06:22:17;;;;;;;18.27;8.53;;;4.20;99.90;;;;;;938683;149;27349;-87
2023/12/18 06:24:44;;;;;;;9.77;7.87;;;4.20;99.90;;;;;;922678;154;27351;-86
2023/12/18 06:27:10;;;;;;;21.07;8.87;;;4.20;99.90;;;;;;939440;149;27277;-84
2023/12/18 06:29:37;;;;;;;10.43;8.07;;;4.20;99.90;;;;;;940010;149;27378;-84
2023/12/18 06:32:04;;;;;;;10.60;8.33;;;4.20;99.90;;;;;;938482;150;27334;-83
2023/12/18 06:34:30;;;;;;;13.23;8.23;;;4.20;99.90;;;;;;945568;148;27491;-84
2023/12/18 06:36:57;;;;;;;19.97;8.87;;;4.20;99.90;;;;;;947669;148;27430;-83
2023/12/18 06:39:23;;;;;;;10.97;8.13;;;4.20;99.90;;;;;;957486;145;27328;-84
2023/12/18 06:41:50;;;;;;;16.37;8.53;;;4.20;99.90;;;;;;954364;146;27935;-83
2023/12/18 06:44:17;;;;;;;17.43;8.23;;;4.20;99.90;;;;;;949666;146;27359;-83
2023/12/18 06:46:43;;;;;;;16.10;9.50;;;4.20;99.90;;;;;;949516;146;28940;-83
2023/12/18 06:49:10;;;;;;;11.17;8.30;;;4.20;99.90;;;;;;949210;146;27266;-83
2023/12/18 06:51:36;;;;;;;13.27;8.10;;;4.20;99.90;;;;;;949993;146;27295;-83
2023/12/18 06:54:03;;;;;;;14.17;8.47;;;4.20;99.90;;;;;;927631;150;27462;-83
2023/12/18 06:56:29;;;;;;;24.77;8.70;;;4.20;99.90;;;;;;951554;147;27344;-84
2023/12/18 06:58:56;;;;;;;10.80;8.87;;;4.20;99.90;;;;;;939346;150;27328;-84
2023/12/18 07:01:23;;;;;;;17.93;9.20;;;4.20;99.90;;;;;;943488;149;27362;-83
2023/12/18 07:03:49;;;;;;;21.00;8.50;;;4.20;99.90;;;;;;936432;150;27343;-84
2023/12/18 07:06:16;;;;;;;17.13;9.10;;;4.20;99.90;;;;;;956442;147;27339;-84
2023/12/18 07:08:42;;;;;;;13.60;7.87;;;4.20;99.90;;;;;;933452;150;27297;-84
2023/12/18 07:11:09;;;;;;;11.93;8.40;;;4.20;99.90;;;;;;949378;146;27298;-84
2023/12/18 07:13:36;;;;;;;20.97;9.03;;;4.20;99.90;;;;;;938405;150;27327;-83
2023/12/18 07:16:02;;;;;;;21.17;9.63;;;4.20;99.90;;;;;;933566;151;27373;-83
2023/12/18 07:18:29;;;;;;;14.73;8.00;;;4.20;99.90;;;;;;955267;147;27345;-84
2023/12/18 07:20:55;;;;;;;16.00;8.97;;;4.20;99.90;;;;;;957189;147;27390;-84
2023/12/18 07:23:22;;;;;;;28.67;10.77;;;4.20;99.90;;;;;;956260;147;27306;-84
2023/12/18 07:25:48;;;;;;;15.23;8.60;;;4.20;99.90;;;;;;955206;147;27333;-82
2023/12/18 07:28:15;;;;;;;19.30;9.17;;;4.20;99.90;;;;;;956320;147;27430;-82
2023/12/18 07:30:42;;;;;;;21.27;8.73;;;4.20;99.90;;;;;;955619;147;27320;-82
2023/12/18 07:33:08;;;;;;;14.60;8.37;;;4.20;99.90;;;;;;953925;147;27270;-82
2023/12/18 07:35:35;;;;;;;13.03;8.50;;;4.20;99.90;;;;;;951047;147;27318;-85
2023/12/18 07:38:01;;;;;;;14.83;8.77;;;4.20;99.90;;;;;;954068;148;27356;-84
2023/12/18 07:40:28;;;;;;;21.40;9.60;;;4.20;99.90;;;;;;951168;148;27332;-86
2023/12/18 07:42:55;;;;;;;20.90;9.73;;;4.20;99.90;;;;;;935595;150;27923;-85
2023/12/18 07:45:21;;;;;;;16.30;8.77;;;4.30;99.90;;;;;;953846;148;27363;-86
2023/12/18 07:47:48;;;;;;;19.43;10.87;;;4.30;99.90;;;;;;946637;149;27277;-85
2023/12/18 07:50:14;;;;;;;13.60;9.23;;;4.30;99.90;;;;;;949008;150;27432;-85
2023/12/18 07:52:43;;;;;;;21.20;9.50;;;4.30;99.90;;;;;;948191;151;27437;-85
2023/12/18 07:55:08;;;;;;;23.53;10.17;;;4.30;99.90;;;;;;933170;150;27302;-85
2023/12/18 07:57:34;;;;;;;13.13;9.20;;;4.30;99.90;;;;;;940123;150;27304;-85
2023/12/18 08:00:01;;;;;;;12.63;9.43;;;4.40;99.90;;;;;;935199;150;27307;-84
2023/12/18 08:02:27;;;;;;;11.67;8.43;;;4.40;99.90;;;;;;952042;147;27355;-85
2023/12/18 08:04:54;;;;;;;17.90;8.80;;;4.40;99.90;;;;;;951184;148;27293;-85
2023/12/18 08:07:21;;;;;;;14.77;8.97;;;4.50;99.90;;;;;;951972;147;27290;-86
2023/12/18 08:09:47;;;;;;;12.80;8.83;;;4.50;99.90;;;;;;952058;147;27366;-85
2023/12/18 08:12:14;;;;;;;25.10;9.43;;;4.50;99.90;;;;;;952360;147;27922;-85
2023/12/18 08:14:40;;;;;;;16.40;9.43;;;4.50;99.90;;;;;;924169;155;27469;-86
2023/12/18 08:17:07;;;;;;;15.03;9.70;;;4.50;99.90;;;;;;925268;154;27352;-84
2023/12/18 08:19:33;;;;;;;13.33;9.53;;;4.60;99.90;;;;;;930834;150;27776;-85
2023/12/18 08:22:00;;;;;;;13.40;8.73;;;4.60;99.90;;;;;;951112;147;27320;-84
2023/12/18 08:24:27;;;;;;;26.30;9.30;;;4.60;99.90;;;;;;935765;151;27521;-85
2023/12/18 08:26:53;;;;;;;15.77;9.53;;;4.60;99.90;;;;;;949045;151;27287;-85
2023/12/18 08:29:20;;;;;;;14.40;9.90;;;4.60;99.90;;;;;;948940;151;27257;-85
2023/12/18 08:31:46;;;;;;;16.60;10.10;;;4.60;99.90;;;;;;947879;151;27693;-86
2023/12/18 08:34:13;;;;;;;18.43;9.20;;;4.60;99.90;;;;;;949158;149;27340;-86
2023/12/18 08:36:40;;;;;;;13.90;8.37;;;4.70;99.90;;;;;;949483;151;27333;-84
2023/12/18 08:39:08;;;;;;;18.83;8.87;;;4.70;99.90;;;;;;942715;148;27312;-84
2023/12/18 08:41:33;;;;;;;14.57;9.30;;;4.70;99.90;;;;;;960204;146;27639;-84
2023/12/18 08:43:59;;;;;;;16.07;9.00;;;4.70;99.90;;;;;;949217;149;27391;-84
2023/12/18 08:46:26;;;;;;;21.73;9.20;;;4.70;99.90;;;;;;958643;146;27857;-85
2023/12/18 08:48:52;;;;;;;16.00;9.07;;;4.80;99.90;;;;;;944000;148;27323;-86
2023/12/18 08:51:19;;;;;;;14.37;9.30;;;4.80;99.90;;;;;;941711;149;27313;-85
2023/12/18 08:53:46;;;;;;;12.87;9.70;;;4.80;99.90;;;;;;959261;146;27370;-84
2023/12/18 08:56:12;;;;;;;14.57;9.67;;;4.80;99.90;;;;;;956354;146;27339;-85
2023/12/18 08:58:39;;;;;;;13.33;9.20;;;4.90;99.90;;;;;;955794;146;27280;-85
2023/12/18 09:01:05;;;;;;;20.50;9.23;;;4.90;99.90;;;;;;955560;146;27374;-85
2023/12/18 09:03:35;;;;;;;15.47;9.70;;;5.00;99.90;;;;;;955556;146;27425;-85
2023/12/18 09:06:04;;;;;;;12.07;9.83;;;5.00;99.90;;;;;;943789;148;27381;-84
2023/12/18 09:08:39;;;;;;;14.40;8.90;;;5.00;99.90;;;;;;957262;145;27444;-85
2023/12/18 09:11:03;;;;;;;13.97;9.37;;;5.10;99.90;;;;;;957198;146;27624;-85
2023/12/18 09:13:30;;;;;;;11.20;8.40;;;5.10;99.90;;;;;;950464;148;27247;-83
2023/12/18 09:15:56;;;;;;;17.17;9.67;;;5.10;99.90;;;;;;946890;148;27363;-85
2023/12/18 09:18:23;;;;;;;20.83;10.03;;;5.20;99.90;;;;;;949274;148;27361;-86
2023/12/18 09:20:50;;;;;;;19.07;9.47;;;5.20;99.90;;;;;;929885;150;27351;-85
2023/12/18 09:23:16;;;;;;;15.60;9.17;;;5.20;99.90;;;;;;926930;150;27290;-84
2023/12/18 09:25:43;;;;;;;14.77;9.70;;;5.20;99.90;;;;;;937231;149;27830;-84
2023/12/18 09:28:09;;;;;;;18.37;10.87;;;5.30;99.90;;;;;;960776;146;27339;-85
2023/12/18 09:30:36;;;;;;;14.50;9.53;;;5.30;99.90;;;;;;956085;146;27243;-85
2023/12/18 09:33:03;;;;;;;17.53;10.10;;;5.30;99.90;;;;;;951209;147;27331;-85
2023/12/18 09:35:29;;;;;;;20.07;10.67;;;5.40;99.90;;;;;;951593;147;27332;-84
2023/12/18 09:37:56;;;;;;;20.63;11.20;;;5.40;99.90;;;;;;938787;149;27345;-84
2023/12/18 09:40:22;;;;;;;15.80;10.80;;;5.40;99.90;;;;;;931746;151;27370;-84
2023/12/18 09:42:55;;;;;;;23.47;11.30;;;5.50;99.90;;;;;;930280;150;27339;-84
2023/12/18 09:45:25;;;;;;;17.27;10.87;;;5.50;99.90;;;;;;931922;149;27420;-84
2023/12/18 09:47:51;;;;;;;12.73;9.43;;;5.50;99.90;;;;;;938110;149;27381;-85
2023/12/18 09:50:18;;;;;;;17.20;10.40;;;5.50;99.90;;;;;;939084;149;27447;-84
2023/12/18 09:52:50;;;;;;;16.90;10.53;;;5.60;99.90;;;;;;940792;149;27360;-85
2023/12/18 09:55:17;;;;;;;15.70;10.57;;;5.60;99.90;;;;;;936250;149;27424;-83
2023/12/18 09:57:43;;;;;;;15.87;10.63;;;5.70;99.90;;;;;;938259;149;27405;-83
2023/12/18 10:00:12;;;;;;;19.13;11.97;;;5.70;99.90;;;;;;937803;149;27406;-86
2023/12/18 10:02:37;;;;;;;20.07;11.60;;;5.80;99.90;;;;;;954852;148;27363;-85
2023/12/18 10:05:03;;;;;;;15.13;11.27;;;5.80;99.90;;;;;;951987;148;27796;-85
2023/12/18 10:07:30;;;;;;;15.77;10.87;;;5.80;99.90;;;;;;953031;147;27377;-85
2023/12/18 10:09:56;;;;;;;14.00;11.13;;;5.90;99.90;;;;;;947712;149;27344;-86
2023/12/18 10:12:23;;;;;;;15.93;10.83;;;5.90;99.90;;;;;;947375;149;27552;-85
2023/12/18 10:14:49;;;;;;;19.07;11.87;;;6.00;99.90;;;;;;950991;148;27411;-86
2023/12/18 10:17:16;;;;;;;15.93;11.80;;;6.00;99.90;;;;;;945285;149;27392;-85
2023/12/18 10:19:43;;;;;;;18.77;10.90;;;6.10;99.90;;;;;;943945;148;27378;-85
2023/12/18 10:22:09;;;;;;;16.30;11.63;;;6.10;99.90;;;;;;940278;149;27358;-85
2023/12/18 10:24:42;;;;;;;19.73;11.97;;;6.10;99.90;;;;;;953889;148;27382;-85
2023/12/18 10:27:08;;;;;;;17.33;12.00;;;6.20;99.90;;;;;;934561;151;27417;-85
2023/12/18 10:29:35;;;;;;;15.47;11.43;;;6.20;99.90;;;;;;928213;151;27381;-85
2023/12/18 10:32:01;;;;;;;15.53;12.07;;;6.30;99.90;;;;;;948362;151;27433;-86
2023/12/18 10:34:28;;;;;;;17.90;11.47;;;6.30;99.90;;;;;;949683;148;27312;-86
2023/12/18 10:36:54;;;;;;;15.07;11.63;;;6.40;99.90;;;;;;926571;151;27361;-85
2023/12/18 10:39:21;;;;;;;18.80;12.73;;;6.50;99.90;;;;;;939857;149;27364;-83
2023/12/18 10:41:48;;;;;;;16.07;11.70;;;6.50;99.90;;;;;;935613;150;27414;-85
2023/12/18 10:44:14;;;;;;;18.67;12.83;;;6.60;99.90;;;;;;920976;152;27288;-85
2023/12/18 10:46:41;;;;;;;20.57;13.53;;;6.60;99.90;;;;;;940347;149;27323;-85
2023/12/18 10:49:07;;;;;;;16.50;11.70;;;6.70;99.90;;;;;;940613;149;27391;-85
2023/12/18 10:51:36;;;;;;;15.27;11.73;;;6.80;99.90;;;;;;940434;149;27442;-85
2023/12/18 10:54:01;;;;;;;16.33;12.53;;;6.80;99.90;;;;;;940148;149;27409;-86
2023/12/18 10:56:27;;;;;;;15.20;12.63;;;6.90;99.90;;;;;;937969;150;27390;-83
2023/12/18 10:58:56;;;;;;;15.00;12.33;;;6.90;99.90;;;;;;938323;150;27330;-83
2023/12/18 11:01:20;;;;;;;16.90;12.83;;;7.00;99.90;;;;;;938277;152;27326;-83
2023/12/18 11:03:47;;;;;;;15.53;12.70;;;7.10;99.90;;;;;;929506;153;27467;-83
2023/12/18 11:06:13;;;;;;;15.73;12.60;;;7.10;99.90;;;;;;927379;153;27438;-83
2023/12/18 11:08:40;;;;;;;15.77;12.43;;;7.20;99.90;;;;;;934022;150;27656;-83
2023/12/18 11:11:07;;;;;;;17.13;13.23;;;7.20;99.90;;;;;;937081;150;27290;-84
2023/12/18 11:13:51;;;;;;;16.93;12.57;;;7.20;99.90;;;;;;938451;149;27767;-84
2023/12/18 11:16:33;;;;;;;18.20;13.07;;;7.30;99.90;;;;;;920293;152;27392;-84
2023/12/18 11:19:06;;;;;;;18.60;13.53;;;7.30;99.90;;;;;;936513;149;27378;-84
2023/12/18 11:21:32;;;;;;;18.50;12.77;;;7.30;99.90;;;;;;924837;148;27274;-84
2023/12/18 11:23:59;;;;;;;17.27;13.00;;;7.30;99.90;;;;;;946001;150;28311;-84
2023/12/18 11:26:25;;;;;;;18.00;14.07;;;7.30;99.90;;;;;;946185;151;27346;-84
2023/12/18 11:28:52;;;;;;;17.03;12.60;;;7.30;99.90;;;;;;946615;149;27432;-83
2023/12/18 11:31:20;;;;;;;18.87;13.37;;;7.30;99.90;;;;;;929351;151;27334;-83
2023/12/18 11:34:04;;;;;;;19.70;14.53;;;7.30;99.90;;;;;;933790;151;27421;-84
2023/12/18 11:36:30;;;;;;;18.67;14.10;;;7.30;99.90;;;;;;947998;148;27334;-84
2023/12/18 11:38:59;;;;;;;17.30;13.60;;;7.40;99.90;;;;;;955538;148;27330;-83
2023/12/18 11:41:41;;;;;;;16.77;13.03;;;7.40;99.90;;;;;;949964;148;27340;-84
2023/12/18 11:44:17;;;;;;;19.53;13.47;;;7.40;99.90;;;;;;928879;151;27356;-84
2023/12/18 11:46:46;;;;;;;18.77;13.07;;;7.40;99.90;;;;;;939913;148;27278;-84
2023/12/18 11:49:10;;;;;;;19.23;14.07;;;7.40;99.90;;;;;;957054;146;27436;-84
2023/12/18 11:51:36;;;;;;;20.37;14.83;;;7.50;99.90;;;;;;937488;149;27764;-84
2023/12/18 11:54:03;;;;;;;20.10;14.43;;;7.50;99.90;;;;;;949928;147;27421;-84
2023/12/18 11:56:41;;;;;;;19.80;14.80;;;7.50;99.90;;;;;;950417;146;27311;-84
2023/12/18 11:59:08;;;;;;;19.00;14.13;;;7.50;99.90;;;;;;927829;150;27455;-84
2023/12/18 12:01:34;;;;;;;18.93;14.40;;;7.50;99.90;;;;;;948424;148;28773;-84
2023/12/18 12:04:01;;;;;;;18.83;14.73;;;7.60;99.90;;;;;;954773;147;27647;-84
2023/12/18 12:06:27;;;;;;;18.43;14.53;;;7.60;99.90;;;;;;956593;147;27246;-82
2023/12/18 12:08:54;;;;;;;18.83;14.73;;;7.60;99.90;;;;;;955964;147;27353;-82
2023/12/18 12:11:21;;;;;;;17.63;13.83;;;7.60;99.90;;;;;;956362;147;27342;-82
2023/12/18 12:13:49;;;;;;;18.37;14.67;;;7.70;99.90;;;;;;935517;150;27658;-83
2023/12/18 12:16:19;;;;;;;21.90;13.87;;;7.70;99.90;;;;;;936238;150;27259;-84
2023/12/18 12:18:50;;;;;;;20.33;14.63;;;7.70;99.90;;;;;;947020;148;27470;-84
2023/12/18 12:21:16;;;;;;;17.53;14.73;;;7.80;99.90;;;;;;949732;148;27358;-84
2023/12/18 12:23:42;;;;;;;18.93;14.67;;;7.80;99.90;;;;;;956221;147;27301;-83
2023/12/18 12:26:11;;;;;;;19.17;14.57;;;7.80;99.90;;;;;;942300;150;27644;-84
2023/12/18 12:28:38;;;;;;;19.80;15.83;;;7.90;99.90;;;;;;935248;150;27401;-84
2023/12/18 12:31:04;;;;;;;19.03;14.90;;;7.90;99.90;;;;;;950691;147;27783;-84
2023/12/18 12:33:43;;;;;;;19.43;15.50;;;8.00;99.90;;;;;;938984;149;27312;-83
2023/12/18 12:36:09;;;;;;;19.50;16.17;;;8.00;99.90;;;;;;935275;150;27857;-84
2023/12/18 12:38:42;;;;;;;20.73;16.27;;;8.10;99.90;;;;;;951989;148;27412;-83
2023/12/18 12:41:08;;;;;;;21.77;16.60;;;8.10;99.90;;;;;;951369;148;27482;-84